Time;durP1;ratioP1;P1;durP2;ratioP2;P2;SDS_P1;SDS_P2;PMS_P1;PMS_P2;Temp;Humidity;BMP_temperature;BMP_pressure;BME280_temperature;BME280_humidity;BME280_pressure;Samples;Min_cycle;Max_cycle;Signal;HPM_P1;HPM_P2
2024/01/08 00:00:15;;;;;;;;;;;10.10;99.90;;;;;;5092970;28;19920;-83
2024/01/08 00:02:41;;;;;;;;;;;10.10;99.90;;;;;;5092619;28;19908;-83
2024/01/08 00:05:07;;;;;;;;;;;10.20;99.90;;;;;;5092243;28;19930;-82
2024/01/08 00:07:32;;;;;;;;;;;10.30;99.90;;;;;;5092762;28;19915;-84
2024/01/08 00:09:58;;;;;;;;;;;10.30;99.90;;;;;;5092535;28;19953;-83
2024/01/08 00:12:24;;;;;;;;;;;10.30;99.90;;;;;;5090929;28;19908;-83
2024/01/08 00:14:50;;;;;;;;;;;10.30;99.90;;;;;;5092331;28;20014;-83
2024/01/08 00:17:16;;;;;;;;;;;10.30;99.90;;;;;;5090562;28;20006;-82
2024/01/08 00:19:42;;;;;;;;;;;10.40;99.90;;;;;;5091992;28;19923;-83
2024/01/08 00:22:07;;;;;;;;;;;10.50;99.90;;;;;;5090724;28;19908;-83
2024/01/08 00:24:33;;;;;;;;;;;10.40;99.90;;;;;;5092147;28;19999;-83
2024/01/08 00:26:59;;;;;;;;;;;10.40;99.90;;;;;;5092236;28;19912;-83
2024/01/08 00:29:25;;;;;;;;;;;10.40;99.90;;;;;;5090698;28;20379;-83
2024/01/08 00:31:51;;;;;;;;;;;10.40;99.90;;;;;;5092775;28;19911;-83
2024/01/08 00:34:17;;;;;;;;;;;10.50;99.90;;;;;;5091815;28;19908;-82
2024/01/08 00:36:42;;;;;;;;;;;10.50;99.90;;;;;;5090526;28;19908;-83
2024/01/08 00:39:11;;;;;;;;;;;10.40;99.90;;;;;;5092120;28;20368;-81
2024/01/08 00:41:38;;;;;;;;;;;9.90;99.90;;;;;;5091940;28;19908;-84
2024/01/08 00:44:04;;;;;;;;;;;9.00;99.90;;;;;;5091687;28;19957;-82
2024/01/08 00:46:30;;;;;;;;;;;8.80;99.90;;;;;;5090012;28;20022;-82
2024/01/08 00:48:57;;;;;;;;;;;8.60;99.90;;;;;;5090060;28;19908;-81
2024/01/08 00:51:22;;;;;;;;;;;8.50;99.90;;;;;;5091768;28;19908;-82
2024/01/08 00:53:48;;;;;;;;;;;8.40;99.90;;;;;;5090011;28;20450;-79
2024/01/08 00:56:15;;;;;;;;;;;8.20;99.90;;;;;;5091790;28;19939;-83
2024/01/08 00:58:45;;;;;;;;;;;8.20;99.90;;;;;;5091027;28;19970;-82
2024/01/08 01:01:12;;;;;;;;;;;8.20;99.90;;;;;;5091441;28;20257;-82
2024/01/08 01:03:37;;;;;;;;;;;8.30;99.90;;;;;;5089249;28;19909;-82
2024/01/08 01:06:03;;;;;;;;;;;8.40;99.90;;;;;;5089799;28;19977;-82
2024/01/08 01:08:29;;;;;;;;;;;8.40;99.90;;;;;;5091552;28;19915;-82
2024/01/08 01:10:55;;;;;;;;;;;8.50;99.90;;;;;;5090070;28;20028;-83
2024/01/08 01:13:21;;;;;;;;;;;8.60;99.90;;;;;;5091719;28;20357;-83
2024/01/08 01:15:47;;;;;;;;;;;8.70;99.90;;;;;;5091949;28;20423;-83
2024/01/08 01:18:14;;;;;;;;;;;8.80;99.90;;;;;;5091692;28;20070;-83
2024/01/08 01:20:39;;;;;;;;;;;8.80;99.90;;;;;;5089804;28;20010;-81
2024/01/08 01:23:05;;;;;;;;;;;9.00;99.90;;;;;;5091198;28;20427;-82
2024/01/08 01:25:31;;;;;;;;;;;9.10;99.90;;;;;;5089531;28;19908;-82
2024/01/08 01:27:57;;;;;;;;;;;9.10;99.90;;;;;;5089756;28;19998;-82
2024/01/08 01:30:23;;;;;;;;;;;9.20;99.90;;;;;;5090255;28;19908;-82
2024/01/08 01:32:48;;;;;;;;;;;9.30;99.90;;;;;;5090967;28;20000;-82
2024/01/08 01:35:15;;;;;;;;;;;9.40;99.90;;;;;;5090812;28;19954;-82
2024/01/08 01:37:42;;;;;;;;;;;9.50;99.90;;;;;;5090570;28;19958;-82
2024/01/08 01:40:10;;;;;;;;;;;9.60;99.90;;;;;;5072838;28;20645;-81
2024/01/08 01:42:36;;;;;;;;;;;9.60;99.90;;;;;;5089754;28;19920;-82
2024/01/08 01:45:03;;;;;;;;;;;9.70;99.90;;;;;;5091308;28;19912;-82
2024/01/08 01:47:29;;;;;;;;;;;9.70;99.90;;;;;;5089402;28;19927;-81
2024/01/08 01:49:54;;;;;;;;;;;9.80;99.90;;;;;;5091161;28;20256;-81
2024/01/08 01:52:21;;;;;;;;;;;9.80;99.90;;;;;;5091626;28;20026;-82
2024/01/08 01:54:49;;;;;;;;;;;9.80;99.90;;;;;;5091003;28;19908;-82
2024/01/08 01:57:15;;;;;;;;;;;9.80;99.90;;;;;;5089503;28;19908;-83
2024/01/08 01:59:41;;;;;;;;;;;9.80;99.90;;;;;;5089497;28;19916;-83
2024/01/08 02:02:07;;;;;;;;;;;9.70;99.90;;;;;;5091057;28;20391;-83
2024/01/08 02:04:34;;;;;;;;;;;9.80;99.90;;;;;;5089215;28;19927;-83
2024/01/08 02:07:00;;;;;;;;;;;9.80;99.90;;;;;;5091240;28;19968;-83
2024/01/08 02:09:27;;;;;;;;;;;9.80;99.90;;;;;;5095038;28;19908;-82
2024/01/08 02:11:52;;;;;;;;;;;9.80;99.90;;;;;;5094554;28;19908;-82
2024/01/08 02:14:18;;;;;;;;;;;9.80;99.90;;;;;;5094951;28;19942;-81
2024/01/08 02:16:44;;;;;;;;;;;9.90;99.90;;;;;;5095372;28;19908;-81
2024/01/08 02:19:11;;;;;;;;;;;9.90;99.90;;;;;;5094311;28;19920;-82
2024/01/08 02:21:37;;;;;;;;;;;9.90;99.90;;;;;;5094566;28;19913;-82
2024/01/08 02:24:05;;;;;;;;;;;9.90;99.90;;;;;;5094564;28;20002;-82
2024/01/08 02:26:31;;;;;;;;;;;9.80;99.90;;;;;;5092645;28;20256;-81
2024/01/08 02:28:56;;;;;;;;;;;9.90;99.90;;;;;;5094273;28;20010;-82
2024/01/08 02:31:22;;;;;;;;;;;9.90;99.90;;;;;;5094431;28;19908;-81
2024/01/08 02:33:48;;;;;;;;;;;9.80;99.90;;;;;;5093796;28;20348;-83
2024/01/08 02:36:14;;;;;;;;;;;9.80;99.90;;;;;;5092681;28;20271;-81
2024/01/08 02:38:40;;;;;;;;;;;9.80;99.90;;;;;;5092404;28;19927;-81
2024/01/08 02:41:05;;;;;;;;;;;9.80;99.90;;;;;;5092557;28;19912;-83
2024/01/08 02:43:32;;;;;;;;;;;9.80;99.90;;;;;;5092456;28;20293;-81
2024/01/08 02:45:58;;;;;;;;;;;9.80;99.90;;;;;;5092480;28;19960;-82
2024/01/08 02:48:24;;;;;;;;;;;9.90;99.90;;;;;;5092460;28;20034;-82
2024/01/08 02:50:50;;;;;;;;;;;9.90;99.90;;;;;;5092603;28;19930;-81
2024/01/08 02:53:16;;;;;;;;;;;9.90;99.90;;;;;;5092787;28;19919;-82
2024/01/08 02:55:42;;;;;;;;;;;10.00;99.90;;;;;;5094219;28;20002;-82
2024/01/08 02:58:09;;;;;;;;;;;10.10;99.90;;;;;;5093810;28;20291;-83
2024/01/08 03:00:34;;;;;;;;;;;10.10;99.90;;;;;;5093857;28;19912;-82
2024/01/08 03:03:00;;;;;;;;;;;10.20;99.90;;;;;;5094147;28;20288;-83
2024/01/08 03:05:26;;;;;;;;;;;10.10;99.90;;;;;;5092148;28;20344;-83
2024/01/08 03:07:52;;;;;;;;;;;9.70;99.90;;;;;;5092790;28;19912;-83
2024/01/08 03:10:18;;;;;;;;;;;9.60;99.90;;;;;;5093614;28;19969;-84
2024/01/08 03:12:43;;;;;;;;;;;9.60;99.90;;;;;;5093980;28;19951;-82
2024/01/08 03:15:09;;;;;;;;;;;9.50;99.90;;;;;;5091879;28;19915;-83
2024/01/08 03:17:35;;;;;;;;;;;9.30;99.90;;;;;;5091780;28;19908;-83
2024/01/08 03:20:02;;;;;;;;;;;9.30;99.90;;;;;;5092839;28;19923;-81
2024/01/08 03:22:28;;;;;;;;;;;9.10;99.90;;;;;;5093246;28;19908;-82
2024/01/08 03:24:54;;;;;;;;;;;9.10;99.90;;;;;;5093092;28;19912;-82
2024/01/08 03:27:20;;;;;;;;;;;9.00;99.90;;;;;;5093426;28;19915;-82
2024/01/08 03:29:46;;;;;;;;;;;9.00;99.90;;;;;;5093214;28;19988;-82
2024/01/08 03:32:11;;;;;;;;;;;8.90;99.90;;;;;;5091297;28;20731;-83
2024/01/08 03:34:37;;;;;;;;;;;8.90;99.90;;;;;;5092464;28;19912;-83
2024/01/08 03:37:03;;;;;;;;;;;8.90;99.90;;;;;;5091569;28;19972;-83
2024/01/08 03:39:30;;;;;;;;;;;8.90;99.90;;;;;;5092590;28;20309;-83
2024/01/08 03:41:56;;;;;;;;;;;9.00;99.90;;;;;;5092779;28;19919;-82
2024/01/08 03:44:23;;;;;;;;;;;9.10;99.90;;;;;;5092423;28;19909;-82
2024/01/08 03:46:49;;;;;;;;;;;9.10;99.90;;;;;;5092756;28;19947;-83
2024/01/08 03:49:15;;;;;;;;;;;9.20;99.90;;;;;;5092090;28;20380;-81
2024/01/08 03:51:41;;;;;;;;;;;9.20;99.90;;;;;;5092468;28;19912;-81
2024/01/08 03:54:07;;;;;;;;;;;9.30;99.90;;;;;;5092455;28;19999;-82
2024/01/08 03:56:33;;;;;;;;;;;9.30;99.90;;;;;;5092656;28;20313;-82
2024/01/08 03:59:00;;;;;;;;;;;9.20;99.90;;;;;;5091898;28;19916;-82
2024/01/08 04:01:26;;;;;;;;;;;9.30;99.90;;;;;;5093389;28;19908;-82
2024/01/08 04:03:52;;;;;;;;;;;9.20;99.90;;;;;;5091517;28;19908;-83
2024/01/08 04:06:18;;;;;;;;;;;9.20;99.90;;;;;;5091215;28;19908;-81
2024/01/08 04:08:44;;;;;;;;;;;9.20;99.90;;;;;;5092599;28;20280;-83
2024/01/08 04:11:10;;;;;;;;;;;9.20;99.90;;;;;;5093492;28;20367;-81
2024/01/08 04:13:39;;;;;;;;;;;9.20;99.90;;;;;;5093387;28;19909;-82
2024/01/08 04:16:05;;;;;;;;;;;9.30;99.90;;;;;;5093465;28;19915;-83
2024/01/08 04:18:31;;;;;;;;;;;9.40;99.90;;;;;;5092639;28;19935;-82
2024/01/08 04:20:56;;;;;;;;;;;9.40;99.90;;;;;;5093914;28;19968;-82
2024/01/08 04:23:24;;;;;;;;;;;9.50;99.90;;;;;;5092728;28;20278;-82
2024/01/08 04:25:49;;;;;;;;;;;9.60;99.90;;;;;;5093477;28;19943;-82
2024/01/08 04:28:15;;;;;;;;;;;9.60;99.90;;;;;;5093356;28;19943;-82
2024/01/08 04:30:41;;;;;;;;;;;9.60;99.90;;;;;;5093722;28;19912;-82
2024/01/08 04:33:07;;;;;;;;;;;9.60;99.90;;;;;;5092305;28;19912;-83
2024/01/08 04:35:33;;;;;;;;;;;9.60;99.90;;;;;;5091497;28;19908;-82
2024/01/08 04:37:59;;;;;;;;;;;9.60;99.90;;;;;;5092779;28;19955;-80
2024/01/08 04:40:25;;;;;;;;;;;9.60;99.90;;;;;;5091604;28;19963;-82
2024/01/08 04:42:51;;;;;;;;;;;9.60;99.90;;;;;;5093059;28;19916;-83
2024/01/08 04:45:17;;;;;;;;;;;9.60;99.90;;;;;;5092542;28;20015;-83
2024/01/08 04:47:43;;;;;;;;;;;9.60;99.90;;;;;;5091526;28;19959;-83
2024/01/08 04:50:09;;;;;;;;;;;9.70;99.90;;;;;;5091596;28;19994;-82
2024/01/08 04:52:34;;;;;;;;;;;9.70;99.90;;;;;;5093144;28;19912;-82
2024/01/08 04:55:00;;;;;;;;;;;9.60;99.90;;;;;;5093401;28;19919;-82
2024/01/08 04:57:28;;;;;;;;;;;9.60;99.90;;;;;;5092471;28;19947;-82
2024/01/08 04:59:55;;;;;;;;;;;9.70;99.90;;;;;;5090714;28;19916;-81
2024/01/08 05:02:21;;;;;;;;;;;9.70;99.90;;;;;;5092019;28;19970;-82
2024/01/08 05:04:47;;;;;;;;;;;9.70;99.90;;;;;;5090532;28;19908;-82
2024/01/08 05:07:12;;;;;;;;;;;9.70;99.90;;;;;;5092235;28;19923;-82
2024/01/08 05:09:38;;;;;;;;;;;9.60;99.90;;;;;;5090669;28;19914;-82
2024/01/08 05:12:04;;;;;;;;;;;9.60;99.90;;;;;;5092332;28;19915;-81
2024/01/08 05:14:30;;;;;;;;;;;9.70;99.90;;;;;;5092077;28;19955;-82
2024/01/08 05:16:56;;;;;;;;;;;9.60;99.90;;;;;;5091225;28;19944;-82
2024/01/08 05:19:22;;;;;;;;;;;9.00;99.90;;;;;;5092926;28;20014;-82
2024/01/08 05:21:47;;;;;;;;;;;8.70;99.90;;;;;;5093008;28;19908;-82
2024/01/08 05:24:13;;;;;;;;;;;8.70;99.90;;;;;;5091286;28;19915;-82
2024/01/08 05:26:39;;;;;;;;;;;8.80;99.90;;;;;;5092852;28;19908;-82
2024/01/08 05:29:06;;;;;;;;;;;9.00;99.90;;;;;;5092900;28;20418;-82
2024/01/08 05:31:32;;;;;;;;;;;9.10;99.90;;;;;;5093165;28;20052;-82
2024/01/08 05:33:58;;;;;;;;;;;9.20;99.90;;;;;;5091549;28;19912;-82
2024/01/08 05:36:24;;;;;;;;;;;9.30;99.90;;;;;;5093650;28;19908;-82
2024/01/08 05:38:50;;;;;;;;;;;9.40;99.90;;;;;;5092499;28;19960;-82
2024/01/08 05:41:18;;;;;;;;;;;9.50;99.90;;;;;;5093614;28;19973;-83
2024/01/08 05:43:44;;;;;;;;;;;9.60;99.90;;;;;;5095000;28;19908;-82
2024/01/08 05:46:11;;;;;;;;;;;9.50;99.90;;;;;;5097635;28;19941;-82
2024/01/08 05:48:39;;;;;;;;;;;9.60;99.90;;;;;;5097144;28;19915;-80
2024/01/08 05:51:06;;;;;;;;;;;9.60;99.90;;;;;;5097617;28;20337;-82
2024/01/08 05:53:32;;;;;;;;;;;9.70;99.90;;;;;;5096763;28;19912;-83
2024/01/08 05:55:58;;;;;;;;;;;9.70;99.90;;;;;;5097230;28;19915;-83
2024/01/08 05:58:23;;;;;;;;;;;9.70;99.90;;;;;;5101047;28;19916;-82
2024/01/08 06:00:49;;;;;;;;;;;9.70;99.90;;;;;;5079631;28;20030;-82
2024/01/08 06:03:15;;;;;;;;;;;9.70;99.90;;;;;;5096200;28;20267;-83
2024/01/08 06:05:41;;;;;;;;;;;9.70;99.90;;;;;;5094919;28;19916;-81
2024/01/08 06:08:08;;;;;;;;;;;9.70;99.90;;;;;;5096297;28;19912;-82
2024/01/08 06:10:34;;;;;;;;;;;9.70;99.90;;;;;;5094656;28;19915;-82
2024/01/08 06:13:00;;;;;;;;;;;9.70;99.90;;;;;;5094517;28;19915;-82
2024/01/08 06:15:26;;;;;;;;;;;9.70;99.90;;;;;;5095794;28;19908;-82
2024/01/08 06:17:52;;;;;;;;;;;9.70;99.90;;;;;;5095809;28;19958;-83
2024/01/08 06:20:18;;;;;;;;;;;9.70;99.90;;;;;;5096161;28;19998;-81
2024/01/08 06:22:43;;;;;;;;;;;9.80;99.90;;;;;;5095845;28;19992;-83
2024/01/08 06:25:09;;;;;;;;;;;9.80;99.90;;;;;;5095717;28;19978;-82
2024/01/08 06:27:35;;;;;;;;;;;9.80;99.90;;;;;;5095987;28;20374;-82
2024/01/08 06:30:01;;;;;;;;;;;9.90;99.90;;;;;;5094119;28;19912;-82
2024/01/08 06:32:27;;;;;;;;;;;9.90;99.90;;;;;;5095437;28;19908;-82
2024/01/08 06:34:53;;;;;;;;;;;9.90;99.90;;;;;;5095245;28;19912;-82
2024/01/08 06:37:18;;;;;;;;;;;10.00;99.90;;;;;;5095809;28;20004;-83
2024/01/08 06:39:44;;;;;;;;;;;10.00;99.90;;;;;;5093618;28;19920;-83
2024/01/08 06:42:10;;;;;;;;;;;10.10;99.90;;;;;;5095057;28;19914;-83
2024/01/08 06:44:36;;;;;;;;;;;10.10;99.90;;;;;;5095348;28;19919;-83
2024/01/08 06:47:02;;;;;;;;;;;10.10;99.90;;;;;;5095154;28;19943;-83
2024/01/08 06:49:27;;;;;;;;;;;10.20;99.90;;;;;;5097082;28;19965;-83
2024/01/08 06:51:53;;;;;;;;;;;10.20;99.90;;;;;;5096581;28;19993;-83
2024/01/08 06:54:19;;;;;;;;;;;10.30;99.90;;;;;;5094756;28;19961;-83
2024/01/08 06:56:45;;;;;;;;;;;10.30;99.90;;;;;;5091945;28;19908;-83
2024/01/08 06:59:11;;;;;;;;;;;10.20;99.90;;;;;;5092506;28;20391;-85
2024/01/08 07:01:37;;;;;;;;;;;10.30;99.90;;;;;;5094533;28;19961;-81
2024/01/08 07:04:03;;;;;;;;;;;10.20;99.90;;;;;;5095671;28;20369;-82
2024/01/08 07:06:29;;;;;;;;;;;10.30;99.90;;;;;;5095538;28;20004;-81
2024/01/08 07:08:55;;;;;;;;;;;10.20;99.90;;;;;;5094169;28;20237;-84
2024/01/08 07:11:24;;;;;;;;;;;10.20;99.90;;;;;;5096560;28;20247;-84
2024/01/08 07:13:50;;;;;;;;;;;10.30;99.90;;;;;;5094450;28;19953;-84
2024/01/08 07:16:16;;;;;;;;;;;10.30;99.90;;;;;;5094491;28;20448;-84
2024/01/08 07:18:42;;;;;;;;;;;10.30;99.90;;;;;;5094834;28;20340;-83
2024/01/08 07:21:09;;;;;;;;;;;10.40;99.90;;;;;;5093594;28;20374;-84
2024/01/08 07:23:37;;;;;;;;;;;10.50;99.90;;;;;;5095631;28;20003;-84
2024/01/08 07:26:03;;;;;;;;;;;10.50;99.90;;;;;;5094748;28;19916;-84
2024/01/08 07:28:29;;;;;;;;;;;10.50;99.90;;;;;;5093469;28;20375;-82
2024/01/08 07:30:55;;;;;;;;;;;10.60;99.90;;;;;;5095304;28;19908;-82
2024/01/08 07:33:24;;;;;;;;;;;10.60;99.90;;;;;;5094545;28;20397;-85
2024/01/08 07:35:50;;;;;;;;;;;10.60;99.90;;;;;;5094733;28;19909;-82
2024/01/08 07:38:16;;;;;;;;;;;10.60;99.90;;;;;;5092949;28;19930;-83
2024/01/08 07:40:42;;;;;;;;;;;10.70;99.90;;;;;;5095208;28;20275;-83
2024/01/08 07:43:08;;;;;;;;;;;10.70;99.90;;;;;;5093371;28;20073;-84
2024/01/08 07:45:33;;;;;;;;;;;10.70;99.90;;;;;;5093794;28;19909;-83
2024/01/08 07:47:59;;;;;;;;;;;10.80;99.90;;;;;;5095846;28;20007;-85
2024/01/08 07:50:25;;;;;;;;;;;10.80;99.90;;;;;;5094750;28;19952;-84
2024/01/08 07:52:51;;;;;;;;;;;10.90;99.90;;;;;;5096007;28;19973;-83
2024/01/08 07:55:17;;;;;;;;;;;10.90;99.90;;;;;;5096676;28;19908;-83
2024/01/08 07:57:43;;;;;;;;;;;10.90;99.90;;;;;;5092851;28;19959;-83
2024/01/08 08:00:11;;;;;;;;;;;10.90;99.90;;;;;;5093800;28;19915;-83
2024/01/08 08:02:37;;;;;;;;;;;10.80;99.90;;;;;;5092840;28;19915;-82
2024/01/08 08:05:03;;;;;;;;;;;10.70;99.90;;;;;;5092530;28;19912;-86
2024/01/08 08:07:29;;;;;;;;;;;10.50;99.90;;;;;;5094352;28;19923;-84
2024/01/08 08:09:55;;;;;;;;;;;10.40;99.90;;;;;;5093007;28;19961;-81
2024/01/08 08:12:21;;;;;;;;;;;10.30;99.90;;;;;;5093085;28;19958;-83
2024/01/08 08:14:48;;;;;;;;;;;10.20;99.90;;;;;;5093012;28;20003;-85
2024/01/08 08:17:14;;;;;;;;;;;10.30;99.90;;;;;;5091747;28;19955;-84
2024/01/08 08:19:41;;;;;;;;;;;10.20;99.90;;;;;;5092863;28;19917;-83
2024/01/08 08:22:07;;;;;;;;;;;10.20;99.90;;;;;;5092146;28;20279;-84
2024/01/08 08:24:33;;;;;;;;;;;10.20;99.90;;;;;;5093501;28;20003;-85
2024/01/08 08:27:00;;;;;;;;;;;10.20;99.90;;;;;;5093702;28;19908;-84
2024/01/08 08:29:27;;;;;;;;;;;10.30;99.90;;;;;;5093450;28;19915;-84
2024/01/08 08:31:53;;;;;;;;;;;10.30;99.90;;;;;;5094358;28;19908;-84
2024/01/08 08:34:19;;;;;;;;;;;10.30;99.90;;;;;;5093271;28;20002;-82
2024/01/08 08:36:45;;;;;;;;;;;10.40;99.90;;;;;;5093881;28;19908;-83
2024/01/08 08:39:15;;;;;;;;;;;10.40;99.90;;;;;;5091826;28;20029;-84
2024/01/08 08:41:42;;;;;;;;;;;10.60;99.90;;;;;;5092622;28;19921;-83
2024/01/08 08:44:08;;;;;;;;;;;10.90;99.90;;;;;;5092622;28;19916;-82
2024/01/08 08:46:35;;;;;;;;;;;11.10;99.90;;;;;;5092084;28;20316;-83
2024/01/08 08:49:01;;;;;;;;;;;11.20;99.90;;;;;;5091164;28;19908;-83
2024/01/08 08:51:27;;;;;;;;;;;11.30;99.90;;;;;;5092673;28;19919;-85
2024/01/08 08:53:54;;;;;;;;;;;11.50;99.90;;;;;;5091989;28;19915;-84
2024/01/08 08:56:21;;;;;;;;;;;11.70;99.90;;;;;;5091695;28;19908;-87
2024/01/08 08:58:47;;;;;;;;;;;11.90;99.90;;;;;;5093259;28;19916;-85
2024/01/08 09:01:14;;;;;;;;;;;11.90;99.90;;;;;;5092102;28;19908;-82
2024/01/08 09:03:40;;;;;;;;;;;11.60;99.90;;;;;;5091246;28;19908;-83
2024/01/08 09:06:07;;;;;;;;;;;11.40;99.90;;;;;;5093085;28;19908;-82
2024/01/08 09:08:33;;;;;;;;;;;11.30;99.90;;;;;;5092868;28;19908;-84
2024/01/08 09:10:59;;;;;;;;;;;11.30;99.90;;;;;;5092372;28;19994;-83
2024/01/08 09:13:25;;;;;;;;;;;11.30;99.90;;;;;;5090838;28;19908;-82
2024/01/08 09:15:51;;;;;;;;;;;11.50;99.90;;;;;;5089756;28;20355;-84
2024/01/08 09:18:18;;;;;;;;;;;11.70;99.90;;;;;;5089839;28;20053;-83
2024/01/08 09:20:44;;;;;;;;;;;11.50;99.90;;;;;;5090556;28;19908;-84
2024/01/08 09:23:10;;;;;;;;;;;11.10;99.90;;;;;;5092249;28;19915;-84
2024/01/08 09:25:36;;;;;;;;;;;11.10;99.90;;;;;;5091798;28;19954;-84
2024/01/08 09:28:01;;;;;;;;;;;10.90;99.90;;;;;;5092214;28;19916;-85
2024/01/08 09:30:27;;;;;;;;;;;10.80;99.90;;;;;;5091543;28;19912;-82
2024/01/08 09:32:53;;;;;;;;;;;11.00;99.90;;;;;;5091567;28;19912;-83
2024/01/08 09:35:19;;;;;;;;;;;11.10;99.90;;;;;;5090361;28;20206;-83
2024/01/08 09:37:45;;;;;;;;;;;11.40;99.90;;;;;;5091492;28;19908;-84
2024/01/08 09:40:11;;;;;;;;;;;11.60;99.90;;;;;;5090547;28;19920;-84
2024/01/08 09:42:39;;;;;;;;;;;11.60;99.90;;;;;;5091950;28;19908;-84
2024/01/08 09:45:09;;;;;;;;;;;11.30;99.90;;;;;;5089931;28;20319;-85
2024/01/08 09:47:35;;;;;;;;;;;10.90;99.90;;;;;;5090285;28;20434;-85
2024/01/08 09:50:02;;;;;;;;;;;10.70;99.90;;;;;;5091504;28;19953;-84
2024/01/08 09:52:28;;;;;;;;;;;10.60;99.90;;;;;;5091721;28;20383;-84
2024/01/08 09:54:54;;;;;;;;;;;10.30;99.90;;;;;;5090860;28;19916;-80
2024/01/08 09:57:20;;;;;;;;;;;10.30;99.90;;;;;;5092902;28;19909;-86
2024/01/08 09:59:46;;;;;;;;;;;10.20;99.90;;;;;;5090826;28;19927;-82
2024/01/08 10:02:16;;;;;;;;;;;10.10;99.90;;;;;;5090503;28;19999;-82
2024/01/08 10:04:41;;;;;;;;;;;10.00;99.90;;;;;;5090697;28;20240;-85
2024/01/08 10:07:08;;;;;;;;;;;10.00;99.90;;;;;;5091951;28;19909;-84
2024/01/08 10:09:34;;;;;;;;;;;9.90;99.90;;;;;;5090489;28;20014;-83
2024/01/08 10:12:00;;;;;;;;;;;9.70;99.90;;;;;;5090815;28;19908;-84
2024/01/08 10:14:26;;;;;;;;;;;9.40;99.90;;;;;;5092591;28;19908;-81
2024/01/08 10:16:55;;;;;;;;;;;9.40;99.90;;;;;;5092194;28;19919;-82
2024/01/08 10:19:23;;;;;;;;;;;9.40;99.90;;;;;;5091746;28;19978;-82
2024/01/08 10:22:05;;;;;;;;;;;9.40;99.90;;;;;;5090261;28;19915;-84
2024/01/08 10:24:31;;;;;;;;;;;9.50;99.90;;;;;;5090875;28;19908;-84
2024/01/08 10:26:57;;;;;;;;;;;9.60;99.90;;;;;;5092363;28;19997;-83
2024/01/08 10:29:24;;;;;;;;;;;9.60;99.90;;;;;;5090797;28;19908;-82
2024/01/08 10:31:50;;;;;;;;;;;9.60;99.90;;;;;;5094360;28;19908;-84
2024/01/08 10:34:16;;;;;;;;;;;9.80;99.90;;;;;;5094393;28;19908;-85
2024/01/08 10:36:43;;;;;;;;;;;9.80;99.90;;;;;;5077907;28;19916;-85
2024/01/08 10:39:09;;;;;;;;;;;9.90;99.90;;;;;;5096272;28;19920;-84
2024/01/08 10:41:36;;;;;;;;;;;9.90;99.90;;;;;;5094439;28;19912;-84
2024/01/08 10:44:03;;;;;;;;;;;9.90;99.90;;;;;;5094705;28;19908;-85
2024/01/08 10:46:32;;;;;;;;;;;9.80;99.90;;;;;;5095451;28;19931;-85
2024/01/08 10:49:00;;;;;;;;;;;9.70;99.90;;;;;;5094014;28;19908;-83
2024/01/08 10:51:26;;;;;;;;;;;9.60;99.90;;;;;;5096201;28;19912;-84
2024/01/08 10:53:57;;;;;;;;;;;9.50;99.90;;;;;;5103185;28;19912;-80
2024/01/08 10:56:24;;;;;;;;;;;9.40;99.90;;;;;;5094367;28;20375;-83
2024/01/08 10:58:59;;;;;;;;;;;9.40;99.90;;;;;;5094435;28;20423;-83
2024/01/08 11:01:26;;;;;;;;;;;9.30;99.90;;;;;;5096872;28;19920;-83
2024/01/08 11:03:52;;;;;;;;;;;9.30;99.90;;;;;;5093717;28;19923;-85
2024/01/08 11:06:21;;;;;;;;;;;9.20;99.90;;;;;;5095055;28;19976;-85
2024/01/08 11:08:46;;;;;;;;;;;9.20;99.90;;;;;;5094847;28;20002;-84
2024/01/08 11:11:15;;;;;;;;;;;9.30;99.90;;;;;;5093677;28;19912;-84
2024/01/08 11:13:41;;;;;;;;;;;9.10;99.90;;;;;;5092992;28;20006;-84
2024/01/08 11:16:08;;;;;;;;;;;8.90;99.90;;;;;;5093945;28;19908;-82
2024/01/08 11:18:34;;;;;;;;;;;8.70;99.90;;;;;;5093344;28;19923;-84
2024/01/08 11:21:01;;;;;;;;;;;8.70;99.90;;;;;;5092828;28;19957;-84
2024/01/08 11:23:27;;;;;;;;;;;8.80;99.90;;;;;;5095438;28;19908;-84
2024/01/08 11:25:54;;;;;;;;;;;8.80;99.90;;;;;;5094837;28;19908;-84
2024/01/08 11:28:20;;;;;;;;;;;8.70;99.90;;;;;;5076256;28;19919;-84
2024/01/08 11:30:48;;;;;;;;;;;8.80;99.90;;;;;;5094624;28;19952;-84
2024/01/08 11:33:32;;;;;;;;;;;8.80;99.90;;;;;;5093975;28;19915;-84
2024/01/08 11:35:59;;;;;;;;;;;8.80;99.90;;;;;;5094138;28;19919;-84
2024/01/08 11:38:28;;;;;;;;;;;8.70;99.90;;;;;;5092690;28;19968;-84
2024/01/08 11:40:55;;;;;;;;;;;8.80;99.90;;;;;;5094351;28;19908;-83
2024/01/08 11:43:21;;;;;;;;;;;8.80;99.90;;;;;;5094394;28;19930;-83
2024/01/08 11:45:47;;;;;;;;;;;8.90;99.90;;;;;;5093293;28;20348;-84
2024/01/08 11:48:13;;;;;;;;;;;9.00;99.90;;;;;;5091899;28;19958;-84
2024/01/08 11:50:42;;;;;;;;;;;9.00;99.90;;;;;;5091860;28;19908;-85
2024/01/08 11:53:11;;;;;;;;;;;9.10;99.90;;;;;;5091870;28;19908;-82
2024/01/08 11:55:37;;;;;;;;;;;9.20;99.90;;;;;;5091828;28;19908;-83
2024/01/08 11:58:03;;;;;;;;;;;9.20;99.90;;;;;;5092567;28;20366;-85
2024/01/08 12:00:29;;;;;;;;;;;9.30;99.90;;;;;;5093456;28;19912;-82
2024/01/08 12:03:02;;;;;;;;;;;9.40;99.90;;;;;;5093003;28;19980;-82
2024/01/08 12:05:28;;;;;;;;;;;9.50;99.90;;;;;;5092162;28;19999;-84
2024/01/08 12:07:54;;;;;;;;;;;9.60;99.90;;;;;;5093184;28;19912;-81
2024/01/08 12:10:20;;;;;;;;;;;9.70;99.90;;;;;;5091595;28;20303;-82
2024/01/08 12:12:46;;;;;;;;;;;9.80;99.90;;;;;;5093229;28;20002;-82
2024/01/08 12:15:12;;;;;;;;;;;9.90;99.90;;;;;;5092690;28;20291;-84
2024/01/08 12:17:38;;;;;;;;;;;10.00;99.90;;;;;;5091922;28;19915;-83
2024/01/08 12:20:05;;;;;;;;;;;10.10;99.90;;;;;;5091992;28;20368;-84
2024/01/08 12:22:31;;;;;;;;;;;10.10;99.90;;;;;;5092105;28;19939;-84
2024/01/08 12:24:58;;;;;;;;;;;9.90;99.90;;;;;;5093300;28;19966;-82
2024/01/08 12:27:30;;;;;;;;;;;9.90;99.90;;;;;;5093293;28;19915;-82
2024/01/08 12:29:56;;;;;;;;;;;9.80;99.90;;;;;;5091896;28;19930;-82
2024/01/08 12:32:23;;;;;;;;;;;9.90;99.90;;;;;;5092039;28;19992;-83
2024/01/08 12:34:49;;;;;;;;;;;9.90;99.90;;;;;;5091809;28;19908;-83
2024/01/08 12:37:16;;;;;;;;;;;9.80;99.90;;;;;;5091708;28;19908;-83
2024/01/08 12:39:43;;;;;;;;;;;9.90;99.90;;;;;;5091154;28;19920;-85
2024/01/08 12:42:10;;;;;;;;;;;10.00;99.90;;;;;;5093386;28;19908;-83
2024/01/08 12:44:36;;;;;;;;;;;10.10;99.90;;;;;;5093688;28;19953;-84
2024/01/08 12:47:04;;;;;;;;;;;10.20;99.90;;;;;;5093364;28;20062;-84
2024/01/08 12:49:31;;;;;;;;;;;10.30;99.90;;;;;;5092978;28;19908;-85
2024/01/08 12:52:00;;;;;;;;;;;10.40;99.90;;;;;;5092015;28;19915;-84
2024/01/08 12:54:36;;;;;;;;;;;10.60;99.90;;;;;;5093231;28;20342;-84
2024/01/08 12:57:03;;;;;;;;;;;10.80;99.90;;;;;;5093699;28;19955;-83
2024/01/08 12:59:31;;;;;;;;;;;10.90;99.90;;;;;;5091769;28;19928;-84
2024/01/08 13:01:57;;;;;;;;;;;10.90;99.90;;;;;;5093272;28;20291;-84
2024/01/08 13:04:23;;;;;;;;;;;10.90;99.90;;;;;;5091562;28;19916;-81
2024/01/08 13:06:49;;;;;;;;;;;11.00;99.90;;;;;;5091801;28;19995;-85
2024/01/08 13:09:16;;;;;;;;;;;10.90;99.90;;;;;;5093601;28;19956;-84
2024/01/08 13:11:42;;;;;;;;;;;10.90;99.90;;;;;;5093065;28;19961;-84
2024/01/08 13:14:11;;;;;;;;;;;10.70;99.90;;;;;;5092687;28;19967;-85
2024/01/08 13:16:38;;;;;;;;;;;10.60;99.90;;;;;;5092210;28;19909;-86
2024/01/08 13:19:04;;;;;;;;;;;10.40;99.90;;;;;;5093867;28;20057;-85
2024/01/08 13:21:30;;;;;;;;;;;10.20;99.90;;;;;;5094313;28;19976;-84
2024/01/08 13:23:56;;;;;;;;;;;10.20;99.90;;;;;;5092716;28;19916;-84
2024/01/08 13:26:23;;;;;;;;;;;10.10;99.90;;;;;;5094338;28;20383;-84
2024/01/08 13:28:49;;;;;;;;;;;10.00;99.90;;;;;;5094016;28;19908;-84
2024/01/08 13:31:15;;;;;;;;;;;9.90;99.90;;;;;;5092256;28;19998;-83
2024/01/08 13:33:42;;;;;;;;;;;9.80;99.90;;;;;;5091927;28;19908;-83
2024/01/08 13:36:09;;;;;;;;;;;9.80;99.90;;;;;;5093882;28;19908;-84
2024/01/08 13:38:36;;;;;;;;;;;9.70;99.90;;;;;;5092040;28;20405;-84
2024/01/08 13:41:02;;;;;;;;;;;9.60;99.90;;;;;;5092263;28;19916;-84
2024/01/08 13:43:28;;;;;;;;;;;9.60;99.90;;;;;;5092522;28;19908;-83
2024/01/08 13:45:55;;;;;;;;;;;9.60;99.90;;;;;;5075502;28;19912;-84
2024/01/08 13:48:21;;;;;;;;;;;9.70;99.90;;;;;;5093515;28;19938;-84
2024/01/08 13:50:47;;;;;;;;;;;9.60;99.90;;;;;;5092740;28;20253;-84
2024/01/08 13:53:13;;;;;;;;;;;9.60;99.90;;;;;;5092344;28;19935;-83
2024/01/08 13:55:39;;;;;;;;;;;9.60;99.90;;;;;;5092699;28;19909;-84
2024/01/08 13:58:05;;;;;;;;;;;9.60;99.90;;;;;;5092856;28;20248;-84
2024/01/08 14:00:31;;;;;;;;;;;9.60;99.90;;;;;;5092929;28;19908;-84
2024/01/08 14:02:58;;;;;;;;;;;9.60;99.90;;;;;;5091801;28;20014;-83
2024/01/08 14:05:25;;;;;;;;;;;9.60;99.90;;;;;;5093592;28;20008;-82
2024/01/08 14:07:52;;;;;;;;;;;9.60;99.90;;;;;;5095100;28;19970;-85
2024/01/08 14:10:19;;;;;;;;;;;9.60;99.90;;;;;;5095008;28;19909;-83
2024/01/08 14:12:45;;;;;;;;;;;9.60;99.90;;;;;;5094853;28;19938;-83
2024/01/08 14:15:11;;;;;;;;;;;9.60;99.90;;;;;;5096541;28;19915;-83
2024/01/08 14:17:38;;;;;;;;;;;9.60;99.90;;;;;;5096618;28;19944;-83
2024/01/08 14:20:08;;;;;;;;;;;9.60;99.90;;;;;;5096930;28;19927;-83